Flight Track Log - Related Links

Times and Time Zones

All times are in EDT time to prevent confusion due to time zone crossing. See the CES5256 flight status page for this flight to view local times or setup timezone preferences in your user account.

Time Position Orientation Groundspeed Altitude Reporting Facility
EDT Latitude Longitude Course Direction KTS MPH feet Rate Location/Type
Wed 04:43:14 AM 23.4340 113.3280 28° Northeast 2,800  Level FlightAware ADS-B
Wed 04:43:34 AM 23.4490 113.3380 31° Northeast 205 236 3,500 1,692 Climbing FlightAware ADS-B
Wed 04:43:53 AM 23.4630 113.3470 31° Northeast 150 173 3,900 1,200 Climbing FlightAware ADS-B
Wed 04:44:09 AM 23.4760 113.3540 26° Northeast 209 241 4,200 1,680 Climbing FlightAware ADS-B
Wed 04:44:18 AM 23.4850 113.3600 31° Northeast 228 262 4,600 2,308 Climbing FlightAware ADS-B
Wed 04:44:22 AM 23.4880 113.3630 43° Northeast 225 259 4,700 2,500 Climbing FlightAware ADS-B
Wed 04:44:30 AM 23.4940 113.3700 47° Northeast 199 229 5,100 2,625 Climbing FlightAware ADS-B
Wed 04:44:38 AM 23.4980 113.3780 61° Northeast 263 303 5,400 1,875 Climbing FlightAware ADS-B
Wed 04:44:46 AM 23.5000 113.3870 76° East 258 297 5,600 1,500 Climbing FlightAware ADS-B
Wed 04:45:06 AM 23.5040 113.4130 80° East 318 366 6,100 1,024 Climbing FlightAware ADS-B
Wed 04:45:27 AM 23.5070 113.4380 83° East 301 346 6,300 643 Climbing FlightAware ADS-B
Wed 04:45:34 AM 23.5090 113.4510 80° East 344 396 6,400 300 Climbing FlightAware ADS-B
Wed 04:45:47 AM 23.5120 113.4680 79° East 229 264 6,400 188 Level FlightAware ADS-B
Wed 04:46:06 AM 23.5160 113.4950 81° East 243 280 6,500 698 Climbing FlightAware ADS-B
Wed 04:46:30 AM 23.5220 113.5290 79° East 332 382 6,900 933 Climbing FlightAware ADS-B
Wed 04:46:51 AM 23.5260 113.5560 81° East 246 283 7,200 750 Climbing FlightAware ADS-B
Wed 04:47:10 AM 23.5310 113.5840 79° East 249 287 7,400 353 Climbing FlightAware ADS-B
Wed 04:47:25 AM 23.5340 113.6050 81° East 281 323 7,400 833 Level FlightAware ADS-B
Wed 04:47:46 AM 23.5390 113.6350 80° East 232 267 7,900 1,902 Climbing FlightAware ADS-B
Wed 04:48:06 AM 23.5430 113.6630 81° East 329 379 8,700 2,455 Climbing FlightAware ADS-B
Wed 04:48:30 AM 23.5490 113.6980 79° East 357 411 9,700 2,250 Climbing FlightAware ADS-B
Wed 04:49:02 AM 23.5570 113.7470 80° East 273 314 10,800 1,478 Climbing FlightAware ADS-B
Wed 04:49:39 AM 23.5670 113.8060 80° East 365 420 11,400 1,167 Climbing FlightAware ADS-B
Wed 04:50:14 AM 23.5770 113.8710 80° East 460 529 12,200 1,970 Climbing FlightAware ADS-B
Wed 04:50:46 AM 23.5860 113.9280 80° East 349 402 13,600 2,382 Climbing FlightAware ADS-B
Wed 04:51:22 AM 23.5970 113.9950 80° East 297 342 14,900 1,973 Climbing FlightAware ADS-B
Wed 04:51:59 AM 23.6070 114.0630 81° East 374 430 16,000 1,784 Climbing FlightAware ADS-B
Wed 04:52:36 AM 23.6190 114.1340 80° East 432 497 17,100 1,097 Climbing FlightAware ADS-B
Wed 04:55:00 AM 23.8300 114.2020 16° North  Level Estimated
Wed 04:56:00 AM 23.9178 114.2303 16° North  Level Estimated
Wed 04:57:00 AM 24.0057 114.2588 16° North  Level Estimated
Wed 04:57:54 AM 23.9800 114.5980 16° North 22,500  Level FlightAware ADS-B
Wed 04:58:00 AM 24.0936 114.2872 16° North  Level Estimated
Wed 04:58:22 AM 24.0250 114.6350 37° Northeast 437 503 23,000  Level FlightAware ADS-B
Wed 04:59:02 AM 24.0860 114.6860 37° Northeast 446 513 23,600 917 Climbing FlightAware ADS-B
Wed 04:59:34 AM 24.1380 114.7290 37° Northeast 392 451 24,100 1,263 Climbing FlightAware ADS-B
Wed 05:00:18 AM 24.2090 114.7870 37° Northeast 500 575 25,200 1,425 Climbing FlightAware ADS-B
Wed 05:00:54 AM 24.2700 114.8280 31° Northeast 509 586 26,000 440 Climbing FlightAware ADS-B
Wed 05:02:26 AM 24.4420 114.8880 18° North 26,600 232 Climbing FlightAware ADS-B
Wed 05:03:29 AM 24.5590 114.9170 13° North 444 511 26,600  Level FlightAware ADS-B
Wed 05:06:00 AM 24.7851 114.9668 11° North  Level Estimated
Wed 05:07:00 AM 24.8750 114.9866 11° North  Level Estimated
Wed 05:08:00 AM 24.9648 115.0065 11° North  Level Estimated
Wed 05:09:00 AM 25.0547 115.0264 11° North  Level Estimated
Wed 05:10:00 AM 25.1445 115.0463 11° North  Level Estimated
Wed 05:11:00 AM 25.2344 115.0663 11° North  Level Estimated
Wed 05:12:00 AM 25.3242 115.0863 11° North  Level Estimated
Wed 05:13:00 AM 25.4140 115.1063 11° North  Level Estimated
Wed 05:14:00 AM 25.5039 115.1264 11° North  Level Estimated
Wed 05:15:00 AM 25.5937 115.1464 11° North  Level Estimated
Wed 05:16:00 AM 25.6835 115.1666 11° North  Level Estimated
Wed 05:17:00 AM 25.7734 115.1867 11° North  Level Estimated
Wed 05:18:00 AM 25.8632 115.2069 11° North  Level Estimated
Wed 05:19:00 AM 25.9530 115.2271 11° North  Level Estimated
Wed 05:20:00 AM 26.0428 115.2473 11° North  Level Estimated
Wed 05:21:00 AM 26.1326 115.2676 11° North  Level Estimated
Wed 05:22:00 AM 26.2225 115.2878 11° North  Level Estimated
Wed 05:23:00 AM 26.3123 115.3082 11° North  Level Estimated
Wed 05:24:00 AM 26.4021 115.3285 11° North  Level Estimated
Wed 05:25:00 AM 26.4919 115.3489 11° North  Level Estimated
Wed 05:26:00 AM 26.5817 115.3693 11° North  Level Estimated
Wed 05:27:00 AM 26.6715 115.3898 12° North  Level Estimated
Wed 05:28:00 AM 26.7613 115.4103 12° North  Level Estimated
Wed 05:29:00 AM 26.8510 115.4308 12° North  Level Estimated
Wed 05:30:00 AM 26.9408 115.4513 12° North  Level Estimated
Wed 05:31:00 AM 27.0306 115.4719 12° North  Level Estimated
Wed 05:32:00 AM 27.1204 115.4925 12° North  Level Estimated
Wed 05:33:00 AM 27.2102 115.5132 12° North  Level Estimated
Wed 05:34:00 AM 27.3000 115.5338 12° North  Level Estimated
Wed 05:35:00 AM 27.3897 115.5546 12° North  Level Estimated
Wed 05:36:00 AM 27.4795 115.5753 12° North  Level Estimated
Wed 05:37:00 AM 27.5693 115.5961 12° North  Level Estimated
Wed 05:38:00 AM 27.6590 115.6169 12° North  Level Estimated
Wed 05:39:00 AM 27.7488 115.6377 12° North  Level Estimated
Wed 05:40:00 AM 27.8386 115.6586 12° North  Level Estimated
Wed 05:41:00 AM 27.9283 115.6795 12° North  Level Estimated
Wed 05:42:00 AM 28.0181 115.7005 12° North  Level Estimated
Wed 05:43:00 AM 28.1078 115.7215 12° North  Level Estimated
Wed 05:44:00 AM 28.1976 115.7425 12° North  Level Estimated
Wed 05:45:00 AM 28.2873 115.7636 12° North  Level Estimated
Wed 05:46:00 AM 28.3770 115.7847 12° North  Level Estimated
Wed 05:47:00 AM 28.4668 115.8058 12° North  Level Estimated
Wed 05:48:00 AM 28.5565 115.8270 12° North  Level Estimated
Wed 05:49:00 AM 28.6462 115.8482 12° North  Level Estimated
Wed 05:50:00 AM 28.7360 115.8694 12° North  Level Estimated
Wed 05:51:00 AM 28.8257 115.8907 12° North  Level Estimated
Wed 05:52:00 AM 28.8650 115.9000 12° North  Level Estimated
Wed 05:53:00 AM 28.8650 115.9000 North  Level Estimated
Wed 05:54:00 AM 28.8650 115.9000 North  Level Estimated
Wed 05:55:00 AM 28.8650 115.9000 North  Level Estimated
Wed 05:56:00 AM 28.8650 115.9000 North  Level Estimated
Wed 05:57:00 AM 28.8650 115.9000 North  Level Estimated
Wed 05:58:00 AM 28.8650 115.9000 North  Level Estimated
Wed 05:59:00 AM 28.8650 115.9000 North  Level Estimated
Wed 06:00:00 AM 28.8650 115.9000 North  Level Estimated
Wed 06:01:00 AM 28.8650 115.9000 North  Level Estimated
Wed 06:02:00 AM 28.8650 115.9000 North  Level Estimated
Wed 06:03:00 AM 28.8650 115.9000 North  Level Estimated
Wed 06:04:00 AM 28.8650 115.9000 North  Level Estimated

Login

Don't have an account? Register now (free) for customized features, flight alerts, and more!